createdAt,value
2024-01-21T00:03:33.936Z,127.23
2024-01-21T00:08:26.508Z,123.83
2024-01-21T00:13:20.421Z,118.63
2024-01-21T00:18:13.231Z,113.43
2024-01-21T00:23:05.870Z,107.67
2024-01-21T00:27:58.436Z,109.30
2024-01-21T00:32:52.612Z,115.07
2024-01-21T00:37:45.318Z,118.17
2024-01-21T00:42:38.044Z,108.83
2024-01-21T00:47:30.715Z,108.50
2024-01-21T00:52:24.716Z,100.77
2024-01-21T00:57:17.327Z,104.40
2024-01-21T01:02:11.702Z,102.40
2024-01-21T01:07:04.728Z,97.53
2024-01-21T01:11:58.686Z,97.03
2024-01-21T01:16:51.269Z,122.13
2024-01-21T01:21:44.004Z,107.57
2024-01-21T01:26:36.634Z,65.00
2024-01-21T01:31:30.561Z,67.60
2024-01-21T01:36:23.223Z,50.47
2024-01-21T01:41:17.005Z,61.47
2024-01-21T01:46:09.888Z,60.63
2024-01-21T01:51:05.263Z,63.30
2024-01-21T01:55:58.134Z,66.90
2024-01-21T02:00:50.823Z,66.20
2024-01-21T02:05:43.669Z,74.37
2024-01-21T02:10:37.691Z,68.97
2024-01-21T02:15:31.574Z,66.80
2024-01-21T02:20:24.215Z,76.73
2024-01-21T02:25:18.501Z,151.33
2024-01-21T02:30:11.349Z,79.17
2024-01-21T02:35:03.887Z,94.73
2024-01-21T02:39:56.484Z,92.17
2024-01-21T02:44:51.565Z,86.40
2024-01-21T02:49:44.334Z,58.60
2024-01-21T02:54:36.984Z,65.03
2024-01-21T02:59:29.637Z,62.00
2024-01-21T03:04:23.509Z,67.33
2024-01-21T03:09:16.231Z,80.30
2024-01-21T03:14:09.026Z,81.50
2024-01-21T03:19:01.699Z,64.77
2024-01-21T03:23:55.661Z,67.43
2024-01-21T03:28:48.169Z,78.53
2024-01-21T03:33:40.866Z,65.13
2024-01-21T03:38:33.589Z,92.37
2024-01-21T03:43:27.519Z,85.30
2024-01-21T03:48:20.189Z,77.47
2024-01-21T03:53:12.800Z,80.83
2024-01-21T03:58:05.559Z,80.83
2024-01-21T04:02:59.470Z,76.63
2024-01-21T04:07:52.024Z,75.50
2024-01-21T04:12:44.656Z,78.37
2024-01-21T04:17:37.322Z,74.87
2024-01-21T04:22:31.262Z,79.90
2024-01-21T04:27:23.843Z,79.10
2024-01-21T04:32:16.387Z,80.70
2024-01-21T04:37:08.963Z,78.80
2024-01-21T04:42:03.166Z,71.57
2024-01-21T04:46:55.725Z,65.37
2024-01-21T04:51:48.330Z,71.87
2024-01-21T04:56:41.155Z,71.33
2024-01-21T05:01:35.309Z,74.20
2024-01-21T05:06:27.881Z,69.77
2024-01-21T05:11:20.459Z,74.50
2024-01-21T05:16:12.966Z,81.27
2024-01-21T05:21:07.086Z,74.20
2024-01-21T05:25:59.634Z,86.53
2024-01-21T05:30:52.238Z,78.27
2024-01-21T05:35:44.831Z,70.30
2024-01-21T05:40:38.839Z,90.53
2024-01-21T05:45:31.409Z,79.70
2024-01-21T05:50:24.046Z,32.07
2024-01-21T05:55:16.804Z,25.03
2024-01-21T06:00:11.575Z,22.40
2024-01-21T06:05:21.886Z,14.97
2024-01-21T06:10:14.468Z,15.97
2024-01-21T06:15:07.467Z,19.10
2024-01-21T06:20:00.015Z,24.03
2024-01-21T06:24:53.962Z,20.47
2024-01-21T06:29:47.033Z,18.20
2024-01-21T06:34:39.671Z,17.50
2024-01-21T06:39:32.340Z,21.70
2024-01-21T06:44:26.273Z,50.90
2024-01-21T06:49:18.956Z,34.23
2024-01-21T06:54:11.539Z,44.23
2024-01-21T06:59:04.102Z,35.17
2024-01-21T07:03:58.229Z,47.67
2024-01-21T07:08:51.010Z,39.60
2024-01-21T07:13:43.697Z,31.17
2024-01-21T07:18:37.396Z,30.97
2024-01-21T07:23:31.345Z,27.00
2024-01-21T07:28:23.881Z,25.93
2024-01-21T07:33:16.698Z,26.77
2024-01-21T07:38:10.829Z,23.67
2024-01-21T07:43:06.160Z,29.50
2024-01-21T07:47:58.789Z,23.70
2024-01-21T07:52:51.451Z,29.37
2024-01-21T07:57:44.147Z,30.43
2024-01-21T08:02:38.178Z,25.87
2024-01-21T08:07:31.099Z,28.00
2024-01-21T08:12:23.657Z,32.00
2024-01-21T08:17:16.250Z,29.37
2024-01-21T08:22:10.450Z,48.80
2024-01-21T08:27:03.712Z,30.77
2024-01-21T08:31:57.457Z,35.87
2024-01-21T08:36:50.166Z,34.50
2024-01-21T08:41:44.304Z,44.33
2024-01-21T08:46:36.873Z,41.17
2024-01-21T08:51:30.581Z,44.70
2024-01-21T08:56:23.266Z,44.80
2024-01-21T09:01:17.639Z,36.90
2024-01-21T09:06:10.941Z,45.83
2024-01-21T09:11:03.671Z,33.23
2024-01-21T09:15:57.209Z,36.70
2024-01-21T09:20:51.298Z,43.77
2024-01-21T09:25:43.870Z,40.27
2024-01-21T09:30:36.993Z,72.37
2024-01-21T09:35:29.844Z,20.33
2024-01-21T09:40:23.935Z,24.87
2024-01-21T09:45:16.533Z,32.47
2024-01-21T09:50:09.736Z,36.27
2024-01-21T09:55:02.328Z,27.47
2024-01-21T09:59:56.822Z,27.50
2024-01-21T10:04:49.500Z,18.50
2024-01-21T10:09:42.974Z,20.80
2024-01-21T10:14:36.904Z,34.17
2024-01-21T10:19:32.863Z,29.67
2024-01-21T10:24:25.750Z,43.00
2024-01-21T10:29:18.556Z,37.57
2024-01-21T10:34:11.498Z,29.03
2024-01-21T10:39:07.799Z,20.17
2024-01-21T10:44:01.557Z,18.70
2024-01-21T10:48:55.543Z,21.20
2024-01-21T10:53:48.330Z,24.17
2024-01-21T10:58:42.242Z,22.77
2024-01-21T11:03:36.949Z,23.80
2024-01-21T11:08:29.843Z,23.53
2024-01-21T11:13:43.076Z,22.40
2024-01-21T11:18:36.648Z,25.00
2024-01-21T11:23:29.333Z,24.57
2024-01-21T11:28:28.932Z,20.47
2024-01-21T11:33:26.188Z,18.60
2024-01-21T11:38:19.912Z,17.83
2024-01-21T11:43:12.608Z,16.73
2024-01-21T11:48:11.367Z,14.50
2024-01-21T11:53:05.589Z,14.43
2024-01-21T11:57:58.269Z,13.47
2024-01-21T12:02:50.941Z,13.77
2024-01-21T12:07:43.860Z,11.77
2024-01-21T12:12:38.366Z,11.30
2024-01-21T12:17:31.380Z,7.37
2024-01-21T12:22:37.015Z,7.97
2024-01-21T12:27:29.598Z,5.30
2024-01-21T12:32:25.101Z,9.70
2024-01-21T12:37:17.731Z,7.03
2024-01-21T12:42:10.364Z,6.80
2024-01-21T12:47:03.941Z,5.27
2024-01-21T12:51:58.046Z,8.33
2024-01-21T12:56:50.635Z,5.10
2024-01-21T13:01:43.329Z,3.97
2024-01-21T13:06:36.055Z,6.87
2024-01-21T13:11:29.971Z,4.50
2024-01-21T13:16:22.612Z,11.40
2024-01-21T13:21:15.180Z,11.80
2024-01-21T13:26:08.610Z,8.83
2024-01-21T13:31:02.947Z,14.83
2024-01-21T13:35:55.537Z,7.93
2024-01-21T13:40:48.163Z,7.50
2024-01-21T13:45:41.459Z,6.27
2024-01-21T13:50:35.723Z,7.53
2024-01-21T13:55:28.287Z,8.00
2024-01-21T14:00:23.670Z,7.20
2024-01-21T14:05:16.603Z,7.87
2024-01-21T14:10:11.181Z,7.50
2024-01-21T14:15:04.427Z,8.87
2024-01-21T14:19:57.095Z,7.80
2024-01-21T14:24:51.999Z,7.27
2024-01-21T14:29:47.022Z,8.70
2024-01-21T14:34:39.882Z,6.90
2024-01-21T14:39:32.528Z,6.97
2024-01-21T14:44:25.570Z,7.60
2024-01-21T14:49:20.016Z,8.30
2024-01-21T14:54:12.819Z,7.50
2024-01-21T14:59:05.532Z,8.00
2024-01-21T15:03:58.265Z,7.83
2024-01-21T15:08:52.327Z,8.70
2024-01-21T15:13:45.966Z,10.30
2024-01-21T15:18:38.970Z,8.60
2024-01-21T15:23:31.983Z,9.60
2024-01-21T15:28:25.936Z,8.07
2024-01-21T15:33:18.817Z,6.40
2024-01-21T15:38:11.574Z,7.67
2024-01-21T15:43:04.672Z,7.10
2024-01-21T15:47:58.742Z,7.37
2024-01-21T15:52:51.430Z,7.10
2024-01-21T15:57:43.997Z,10.80
2024-01-21T16:02:37.073Z,6.73
2024-01-21T16:07:31.079Z,5.57
2024-01-21T16:12:23.985Z,5.40
2024-01-21T16:17:16.942Z,9.93
2024-01-21T16:22:10.090Z,9.77
2024-01-21T16:27:04.323Z,7.83
2024-01-21T16:31:57.139Z,9.23
2024-01-21T16:36:49.762Z,11.13
2024-01-21T16:41:42.472Z,8.57
2024-01-21T16:46:36.560Z,14.17
2024-01-21T16:51:32.396Z,23.63
2024-01-21T16:56:25.523Z,14.13
2024-01-21T17:01:21.600Z,11.67
2024-01-21T17:06:15.702Z,8.40
2024-01-21T17:11:12.050Z,6.57
2024-01-21T17:16:04.916Z,5.60
2024-01-21T17:20:58.229Z,6.63
2024-01-21T17:25:52.259Z,9.40
2024-01-21T17:30:44.997Z,12.63
2024-01-21T17:35:38.239Z,6.13
2024-01-21T17:40:31.049Z,4.37
2024-01-21T17:45:25.066Z,8.33
2024-01-21T17:50:17.738Z,8.50
2024-01-21T17:55:10.567Z,8.47
2024-01-21T18:00:05.891Z,17.33
2024-01-21T18:05:07.012Z,10.70
2024-01-21T18:10:00.745Z,7.40
2024-01-21T18:14:53.949Z,7.80
2024-01-21T18:19:46.626Z,6.97
2024-01-21T18:24:42.314Z,79.60
2024-01-21T18:29:36.121Z,11.63
2024-01-21T18:34:29.554Z,7.63
2024-01-21T18:39:22.673Z,9.13
2024-01-21T18:44:16.682Z,8.13
2024-01-21T18:49:09.494Z,11.17
2024-01-21T18:54:02.253Z,7.03
2024-01-21T18:58:55.820Z,7.20
2024-01-21T19:03:49.881Z,6.63
2024-01-21T19:08:42.543Z,8.27
2024-01-21T19:13:35.139Z,6.23
2024-01-21T19:18:27.875Z,4.80
2024-01-21T19:23:22.114Z,6.30
2024-01-21T19:28:14.919Z,6.33
2024-01-21T19:33:07.928Z,3.83
2024-01-21T19:38:00.568Z,8.63
2024-01-21T19:42:54.556Z,6.53
2024-01-21T19:47:47.534Z,6.83
2024-01-21T19:52:40.577Z,9.63
2024-01-21T19:57:33.666Z,8.27
2024-01-21T20:02:27.948Z,9.23
2024-01-21T20:07:23.324Z,7.00
2024-01-21T20:12:16.051Z,6.97
2024-01-21T20:17:08.898Z,12.23
2024-01-21T20:22:08.232Z,10.20
2024-01-21T20:27:01.106Z,13.37
2024-01-21T20:31:57.433Z,10.20
2024-01-21T20:36:50.110Z,10.97
2024-01-21T20:41:44.233Z,9.37
2024-01-21T20:46:36.934Z,5.80
2024-01-21T20:51:29.766Z,6.47
2024-01-21T20:56:25.386Z,7.93
2024-01-21T21:01:19.662Z,7.77
2024-01-21T21:06:12.561Z,6.03
2024-01-21T21:11:05.330Z,5.30
2024-01-21T21:15:58.109Z,5.63
2024-01-21T21:20:52.127Z,5.30
2024-01-21T21:25:44.802Z,4.03
2024-01-21T21:30:38.669Z,6.00
2024-01-21T21:35:31.408Z,4.97
2024-01-21T21:40:25.379Z,2.73
2024-01-21T21:45:21.787Z,2.80
2024-01-21T21:50:14.599Z,2.97
2024-01-21T21:55:07.715Z,3.30
2024-01-21T22:00:02.874Z,5.43
2024-01-21T22:04:56.882Z,4.43
2024-01-21T22:09:51.005Z,4.83
2024-01-21T22:14:43.721Z,2.53
2024-01-21T22:19:40.164Z,3.60
2024-01-21T22:24:33.470Z,3.20
2024-01-21T22:29:26.118Z,5.10
2024-01-21T22:34:18.725Z,5.33
2024-01-21T22:39:12.731Z,5.40
2024-01-21T22:44:05.528Z,3.47
2024-01-21T22:48:58.630Z,3.30
2024-01-21T22:53:51.544Z,2.17
2024-01-21T22:58:45.489Z,3.87
2024-01-21T23:03:38.272Z,4.90
2024-01-21T23:08:31.823Z,3.93
2024-01-21T23:13:25.863Z,3.87
2024-01-21T23:18:19.914Z,5.17
2024-01-21T23:23:12.617Z,4.20
2024-01-21T23:28:05.427Z,4.47
2024-01-21T23:32:58.340Z,3.90
2024-01-21T23:37:52.388Z,3.03
2024-01-21T23:42:44.960Z,4.90
2024-01-21T23:47:38.776Z,3.80
2024-01-21T23:52:32.749Z,3.87
2024-01-21T23:57:26.759Z,6.40
